Thurman, Iowa
Current Conditions -  °F | °C
As of 3:55 AM on Saturday 01 Nov 2014 (Local Time) from KPMV Reporting Station
Clear Clear  
Wind Chill: 20°   Ceiling: Unl
Heat Index: 28°   Visibility: 10mi
Dew Point: 18°   Wind: 7mph
Humidity: 66%   Direction: 140°SE
Pressure: 30.43"   Gusts: NA
Location:  40.82°N, 95.75°W
Report Text: KPMV 010855Z AUTO 14006KT 10SM CLR M02/M08 A3043 RMK AO2 T10241080
Loading
Personal Weather Stations






























Interactive Weather Map
Tropical Storm Tracking
New forecast layout! Learn more

10-Day Weather Forecast

Advertisements
Track Severe Weather on mobile